Аэропорт: Братск. Братск

ICAO: UIBB

METAR:
2024-04-22 22:30:00
UIBB 222230Z 25005MPS 210V280 9999 -SHSN OVC013CB M01/M03 Q1001 R30/290137 NOSIG RMK QFE709/0945
TAF:
2024-04-22 20:00:00
TAF UIBB 222000Z 2221/2321 27005G14MPS 9999 -SHSNRA FEW001 BKN016CB 
  TEMPO 2221/2309 VRB10MPS 0700 +SHRASN VV002